createdAt,value
2019-04-29T00:00:35.704Z,4.81
2019-04-29T00:03:05.168Z,4.76
2019-04-29T00:05:34.254Z,4.87
2019-04-29T00:08:03.502Z,4.81
2019-04-29T00:10:32.813Z,4.86
2019-04-29T00:13:01.987Z,4.78
2019-04-29T00:15:48.907Z,4.81
2019-04-29T00:18:26.170Z,4.75
2019-04-29T00:20:55.313Z,4.82
2019-04-29T00:23:24.610Z,4.76
2019-04-29T00:25:54.001Z,4.87
2019-04-29T00:28:23.425Z,4.84
2019-04-29T00:30:52.716Z,4.80
2019-04-29T00:33:21.910Z,4.74
2019-04-29T00:35:51.109Z,4.81
2019-04-29T00:38:41.678Z,4.71
2019-04-29T00:41:45.391Z,4.72
2019-04-29T00:44:16.165Z,4.58
2019-04-29T00:46:45.445Z,4.53
2019-04-29T00:49:14.743Z,4.44
2019-04-29T00:51:44.021Z,4.34
2019-04-29T00:54:31.765Z,4.31
2019-04-29T00:57:00.979Z,4.23
2019-04-29T00:59:30.173Z,4.16
2019-04-29T01:01:59.386Z,4.13
2019-04-29T01:04:28.632Z,4.16
2019-04-29T01:06:57.866Z,4.18
2019-04-29T01:09:28.646Z,4.17
2019-04-29T01:11:57.731Z,4.26
2019-04-29T01:14:26.962Z,4.25
2019-04-29T01:16:56.051Z,4.25
2019-04-29T01:19:25.116Z,4.27
2019-04-29T01:21:54.166Z,4.15
2019-04-29T01:24:23.338Z,4.15
2019-04-29T01:27:17.345Z,4.15
2019-04-29T01:29:46.429Z,4.09
2019-04-29T01:32:15.520Z,4.09
2019-04-29T01:35:02.761Z,4.03
2019-04-29T01:37:42.605Z,3.99
2019-04-29T01:40:31.323Z,3.91
2019-04-29T01:43:00.408Z,3.91
2019-04-29T01:45:29.453Z,3.93
2019-04-29T01:47:58.621Z,3.88
2019-04-29T01:50:27.750Z,3.83
2019-04-29T01:52:56.944Z,3.83
2019-04-29T01:55:26.090Z,3.76
2019-04-29T01:57:55.333Z,3.63
2019-04-29T02:00:24.558Z,3.68
2019-04-29T02:02:54.121Z,3.63
2019-04-29T02:05:23.249Z,3.68
2019-04-29T02:07:52.329Z,3.73
2019-04-29T02:10:30.433Z,3.73
2019-04-29T02:13:01.553Z,3.75
2019-04-29T02:15:30.631Z,3.80
2019-04-29T02:17:59.802Z,3.80
2019-04-29T02:20:29.069Z,3.73
2019-04-29T02:23:18.954Z,3.73
2019-04-29T02:25:48.429Z,3.73
2019-04-29T02:28:17.655Z,3.69
2019-04-29T02:30:48.667Z,3.68
2019-04-29T02:33:17.954Z,3.67
2019-04-29T02:35:47.089Z,3.70
2019-04-29T02:38:27.175Z,3.72
2019-04-29T02:41:24.309Z,3.72
2019-04-29T02:43:55.356Z,3.48
2019-04-29T02:46:24.637Z,3.48
2019-04-29T02:48:53.954Z,3.47
2019-04-29T02:51:40.631Z,3.47
2019-04-29T02:54:10.129Z,3.64
2019-04-29T02:56:40.518Z,3.64
2019-04-29T02:59:10.156Z,3.57
2019-04-29T03:01:49.700Z,3.54
2019-04-29T03:04:21.472Z,3.47
2019-04-29T03:06:50.712Z,3.48
2019-04-29T03:09:19.930Z,3.48
2019-04-29T03:11:49.195Z,3.52
2019-04-29T03:14:18.367Z,3.55
2019-04-29T03:16:47.538Z,3.49
2019-04-29T03:19:21.996Z,3.53
2019-04-29T03:21:56.676Z,3.53
2019-04-29T03:24:26.060Z,3.63
2019-04-29T03:26:55.409Z,3.48
2019-04-29T03:29:24.496Z,3.36
2019-04-29T03:31:55.774Z,3.32
2019-04-29T03:34:25.203Z,3.20
2019-04-29T03:36:54.459Z,3.05
2019-04-29T03:39:23.667Z,3.14
2019-04-29T03:41:52.712Z,3.10
2019-04-29T03:44:21.790Z,3.10
2019-04-29T03:46:50.840Z,2.97
2019-04-29T03:49:20.315Z,2.97
2019-04-29T03:51:49.378Z,2.97
2019-04-29T03:54:18.559Z,2.93
2019-04-29T03:56:47.960Z,2.95
2019-04-29T03:59:17.047Z,2.94
2019-04-29T04:02:04.708Z,2.94
2019-04-29T04:04:51.506Z,2.98
2019-04-29T04:07:39.657Z,2.98
2019-04-29T04:10:09.053Z,3.06
2019-04-29T04:12:38.321Z,3.11
2019-04-29T04:15:07.865Z,3.11
2019-04-29T04:17:42.684Z,3.03
2019-04-29T04:20:11.990Z,3.03
2019-04-29T04:22:47.819Z,3.00
2019-04-29T04:25:17.703Z,2.94
2019-04-29T04:27:47.692Z,2.92
2019-04-29T04:30:17.272Z,2.93
2019-04-29T04:32:46.347Z,3.02
2019-04-29T04:35:15.445Z,2.96
2019-04-29T04:37:44.604Z,2.85
2019-04-29T04:40:16.502Z,2.85
2019-04-29T04:42:45.925Z,2.65
2019-04-29T04:45:15.232Z,2.62
2019-04-29T04:47:44.465Z,2.70
2019-04-29T04:50:13.541Z,2.70
2019-04-29T04:52:42.823Z,2.78
2019-04-29T04:55:12.474Z,2.81
2019-04-29T04:57:41.627Z,2.85
2019-04-29T05:00:19.832Z,2.91
2019-04-29T05:02:47.569Z,3.11
2019-04-29T05:05:16.670Z,3.26
2019-04-29T05:07:46.002Z,3.26
2019-04-29T05:10:15.366Z,3.28
2019-04-29T05:12:44.463Z,3.28
2019-04-29T05:15:13.833Z,3.31
2019-04-29T05:17:43.075Z,3.31
2019-04-29T05:20:12.401Z,3.48
2019-04-29T05:22:45.125Z,3.48
2019-04-29T05:25:14.460Z,3.64
2019-04-29T05:27:43.659Z,3.74
2019-04-29T05:30:12.747Z,3.80
2019-04-29T05:32:42.086Z,4.00
2019-04-29T05:35:13.944Z,3.97
2019-04-29T05:38:05.003Z,4.00
2019-04-29T05:40:38.985Z,4.31
2019-04-29T05:43:10.123Z,4.31
2019-04-29T05:45:58.276Z,4.46
2019-04-29T05:48:31.615Z,4.52
2019-04-29T05:51:07.741Z,4.61
2019-04-29T05:53:41.157Z,4.58
2019-04-29T05:56:10.447Z,4.87
2019-04-29T05:58:39.723Z,4.87
2019-04-29T06:01:13.773Z,4.95
2019-04-29T06:03:44.402Z,5.05
2019-04-29T06:06:14.467Z,5.19
2019-04-29T06:08:43.666Z,5.19
2019-04-29T06:11:12.768Z,5.24
2019-04-29T06:13:41.929Z,5.17
2019-04-29T06:16:11.016Z,5.35
2019-04-29T06:18:40.997Z,5.57
2019-04-29T06:21:11.280Z,5.72
2019-04-29T06:23:40.682Z,5.90
2019-04-29T06:26:09.972Z,6.07
2019-04-29T06:28:39.206Z,6.23
2019-04-29T06:31:08.450Z,6.38
2019-04-29T06:33:37.674Z,6.58
2019-04-29T06:36:06.976Z,6.68
2019-04-29T06:38:36.275Z,6.85
2019-04-29T06:41:09.311Z,6.93
2019-04-29T06:43:36.460Z,7.04
2019-04-29T06:46:05.527Z,7.03
2019-04-29T06:48:34.829Z,7.08
2019-04-29T06:51:04.068Z,7.24
2019-04-29T06:53:33.303Z,7.35
2019-04-29T06:56:02.655Z,7.38
2019-04-29T06:58:32.437Z,7.50
2019-04-29T07:01:03.412Z,7.62
2019-04-29T07:03:32.426Z,7.79
2019-04-29T07:06:01.505Z,7.79
2019-04-29T07:08:30.735Z,7.89
2019-04-29T07:11:01.240Z,7.95
2019-04-29T07:13:31.026Z,7.98
2019-04-29T07:16:00.209Z,8.02
2019-04-29T07:18:29.441Z,8.18
2019-04-29T07:20:58.612Z,8.14
2019-04-29T07:23:27.758Z,8.32
2019-04-29T07:25:57.138Z,8.41
2019-04-29T07:28:26.250Z,8.46
2019-04-29T07:31:03.307Z,8.59
2019-04-29T07:33:26.472Z,8.71
2019-04-29T07:35:55.872Z,8.75
2019-04-29T07:38:25.152Z,8.85
2019-04-29T07:40:54.583Z,8.92
2019-04-29T07:43:23.642Z,9.06
2019-04-29T07:46:07.738Z,9.16
2019-04-29T07:48:41.728Z,9.27
2019-04-29T07:51:07.746Z,9.40
2019-04-29T07:53:44.782Z,9.52
2019-04-29T07:56:08.311Z,9.55
2019-04-29T07:58:37.430Z,9.52
2019-04-29T08:01:07.016Z,9.60
2019-04-29T08:03:36.165Z,9.66
2019-04-29T08:06:05.441Z,9.68
2019-04-29T08:08:35.263Z,9.71
2019-04-29T08:11:04.383Z,9.75
2019-04-29T08:13:33.926Z,9.91
2019-04-29T08:16:03.040Z,10.06
2019-04-29T08:18:32.223Z,10.22
2019-04-29T08:21:01.382Z,10.33
2019-04-29T08:23:33.077Z,10.46
2019-04-29T08:26:02.615Z,10.46
2019-04-29T08:28:32.842Z,10.47
2019-04-29T08:31:02.224Z,10.58
2019-04-29T08:33:31.346Z,10.69
2019-04-29T08:36:00.699Z,10.79
2019-04-29T08:38:29.854Z,10.92
2019-04-29T08:40:59.008Z,11.04
2019-04-29T08:44:15.747Z,11.18
2019-04-29T08:46:44.457Z,11.29
2019-04-29T08:49:14.769Z,11.51
2019-04-29T08:51:43.862Z,11.69
2019-04-29T08:54:16.030Z,11.83
2019-04-29T08:57:01.882Z,11.90
2019-04-29T08:59:15.337Z,11.99
2019-04-29T09:01:44.576Z,12.11
2019-04-29T09:04:13.717Z,12.20
2019-04-29T09:06:43.005Z,12.28
2019-04-29T09:09:27.893Z,12.32
2019-04-29T09:11:47.419Z,12.57
2019-04-29T09:14:14.632Z,12.55
2019-04-29T09:16:43.718Z,12.70
2019-04-29T09:19:13.138Z,12.87
2019-04-29T09:21:45.014Z,12.95
2019-04-29T09:24:14.253Z,13.01
2019-04-29T09:26:48.396Z,13.27
2019-04-29T09:29:33.879Z,13.43
2019-04-29T09:32:04.511Z,13.60
2019-04-29T09:34:33.657Z,13.78
2019-04-29T09:37:02.815Z,13.88
2019-04-29T09:39:42.884Z,13.81
2019-04-29T09:42:26.711Z,13.78
2019-04-29T09:45:08.460Z,13.74
2019-04-29T09:47:37.881Z,14.00
2019-04-29T09:50:08.083Z,13.94
2019-04-29T09:52:37.210Z,13.94
2019-04-29T09:55:06.670Z,13.94
2019-04-29T09:57:35.754Z,13.81
2019-04-29T10:00:14.353Z,13.87
2019-04-29T10:03:05.559Z,13.92
2019-04-29T10:05:40.785Z,13.54
2019-04-29T10:08:09.859Z,13.85
2019-04-29T10:10:39.029Z,14.20
2019-04-29T10:13:08.214Z,14.26
2019-04-29T10:15:50.703Z,14.34
2019-04-29T10:18:41.867Z,14.35
2019-04-29T10:21:16.414Z,14.35
2019-04-29T10:23:44.090Z,14.42
2019-04-29T10:26:13.397Z,14.44
2019-04-29T10:29:01.432Z,14.51
2019-04-29T10:31:30.532Z,14.54
2019-04-29T10:33:59.588Z,14.56
2019-04-29T10:36:28.683Z,14.56
2019-04-29T10:39:01.495Z,14.55
2019-04-29T10:41:41.814Z,14.70
2019-04-29T10:44:37.253Z,14.81
2019-04-29T10:47:13.959Z,14.83
2019-04-29T10:49:49.565Z,14.82
2019-04-29T10:52:17.731Z,14.91
2019-04-29T10:54:51.581Z,15.00
2019-04-29T10:57:19.416Z,14.99
2019-04-29T10:59:51.638Z,14.97
2019-04-29T11:02:49.386Z,14.90
2019-04-29T11:05:37.830Z,14.82
2019-04-29T11:08:29.318Z,14.68
2019-04-29T11:11:02.368Z,14.60
2019-04-29T11:13:30.355Z,14.78
2019-04-29T11:15:59.625Z,14.97
2019-04-29T11:18:28.891Z,15.23
2019-04-29T11:20:58.031Z,15.32
2019-04-29T11:23:33.115Z,15.19
2019-04-29T11:26:20.014Z,15.32
2019-04-29T11:28:51.264Z,15.39
2019-04-29T11:31:21.211Z,15.50
2019-04-29T11:34:11.679Z,15.58
2019-04-29T11:36:44.083Z,15.57
2019-04-29T11:39:13.915Z,15.67
2019-04-29T11:41:42.633Z,15.69
2019-04-29T11:44:11.747Z,15.52
2019-04-29T11:46:44.643Z,15.39
2019-04-29T11:49:13.785Z,15.52
2019-04-29T11:52:07.799Z,15.37
2019-04-29T11:54:18.102Z,15.38
2019-04-29T11:56:47.638Z,15.39
2019-04-29T11:59:35.751Z,15.41
2019-04-29T12:02:24.287Z,15.40
2019-04-29T12:04:58.041Z,15.14
2019-04-29T12:07:32.795Z,15.19
2019-04-29T12:10:02.281Z,15.21
2019-04-29T12:12:31.251Z,15.21
2019-04-29T12:15:16.682Z,14.97
2019-04-29T12:18:04.716Z,14.96
2019-04-29T12:20:52.771Z,15.16
2019-04-29T12:23:22.193Z,15.35
2019-04-29T12:25:51.428Z,15.49
2019-04-29T12:28:21.042Z,15.56
2019-04-29T12:30:51.978Z,15.59
2019-04-29T12:33:26.697Z,15.68
2019-04-29T12:36:03.332Z,15.53
2019-04-29T12:38:51.484Z,15.55
2019-04-29T12:41:51.638Z,15.43
2019-04-29T12:44:35.334Z,15.53
2019-04-29T12:47:08.883Z,15.56
2019-04-29T12:49:38.377Z,15.66
2019-04-29T12:52:07.567Z,15.40
2019-04-29T12:54:36.867Z,15.53
2019-04-29T12:57:05.961Z,15.67
2019-04-29T12:59:37.231Z,15.76
2019-04-29T13:02:28.629Z,15.75
2019-04-29T13:05:28.402Z,15.72
2019-04-29T13:08:07.208Z,15.69
2019-04-29T13:10:50.312Z,15.74
2019-04-29T13:13:20.134Z,15.72
2019-04-29T13:16:08.282Z,15.72
2019-04-29T13:19:10.700Z,15.84
2019-04-29T13:21:30.923Z,16.02
2019-04-29T13:24:13.744Z,16.04
2019-04-29T13:26:33.254Z,15.99
2019-04-29T13:29:02.514Z,15.99
2019-04-29T13:31:38.564Z,15.92
2019-04-29T13:34:22.470Z,16.11
2019-04-29T13:36:35.788Z,16.13
2019-04-29T13:39:08.541Z,16.10
2019-04-29T13:41:55.643Z,16.21
2019-04-29T13:44:08.638Z,16.10
2019-04-29T13:46:51.206Z,15.91
2019-04-29T13:49:29.553Z,15.97
2019-04-29T13:51:59.255Z,15.67
2019-04-29T13:54:28.384Z,15.82
2019-04-29T13:57:07.746Z,15.77
2019-04-29T13:59:35.943Z,15.64
2019-04-29T14:02:16.679Z,15.64
2019-04-29T14:04:56.029Z,15.69
2019-04-29T14:07:25.255Z,15.71
2019-04-29T14:09:54.483Z,15.76
2019-04-29T14:14:58.606Z,15.73
2019-04-29T14:17:27.133Z,15.80
2019-04-29T14:18:53.505Z,15.88
2019-04-29T14:19:57.208Z,15.83
2019-04-29T14:22:26.523Z,15.91
2019-04-29T14:24:55.637Z,15.84
2019-04-29T14:27:25.624Z,15.82
2019-04-29T14:29:54.953Z,15.78
2019-04-29T14:32:34.602Z,15.75
2019-04-29T14:35:07.113Z,15.77
2019-04-29T14:37:36.264Z,15.67
2019-04-29T14:40:07.605Z,15.64
2019-04-29T14:43:02.965Z,15.45
2019-04-29T14:45:57.898Z,15.60
2019-04-29T14:48:42.653Z,15.55
2019-04-29T14:51:09.561Z,15.65
2019-04-29T14:53:38.876Z,15.51
2019-04-29T14:56:08.107Z,15.49
2019-04-29T14:58:37.621Z,15.44
2019-04-29T15:01:23.548Z,15.43
2019-04-29T15:03:55.331Z,15.29
2019-04-29T15:06:28.375Z,15.36
2019-04-29T15:08:55.893Z,15.35
2019-04-29T15:11:31.849Z,15.45
2019-04-29T15:14:05.007Z,15.41
2019-04-29T15:16:39.799Z,15.51
2019-04-29T15:19:27.303Z,15.43
2019-04-29T15:22:02.884Z,15.38
2019-04-29T15:24:32.704Z,15.40
2019-04-29T15:27:03.088Z,15.48
2019-04-29T15:29:33.581Z,15.52
2019-04-29T15:32:03.100Z,15.60
2019-04-29T15:34:32.269Z,15.61
2019-04-29T15:37:01.359Z,15.63
2019-04-29T15:39:30.769Z,15.59
2019-04-29T15:42:01.941Z,15.63
2019-04-29T15:44:30.894Z,15.55
2019-04-29T15:46:59.991Z,15.54
2019-04-29T15:49:29.229Z,15.55
2019-04-29T15:51:58.616Z,15.48
2019-04-29T15:54:27.713Z,15.51
2019-04-29T15:56:56.873Z,15.46
2019-04-29T15:59:26.759Z,15.48
2019-04-29T16:01:59.019Z,15.47
2019-04-29T16:04:33.652Z,15.44
2019-04-29T16:07:28.009Z,15.48
2019-04-29T16:10:09.422Z,15.41
2019-04-29T16:12:45.431Z,15.42
2019-04-29T16:15:15.102Z,15.20
2019-04-29T16:17:44.183Z,15.08
2019-04-29T16:20:13.355Z,14.92
2019-04-29T16:22:42.713Z,14.70
2019-04-29T16:25:12.961Z,14.53
2019-04-29T16:27:51.537Z,14.55
2019-04-29T16:30:18.613Z,14.42
2019-04-29T16:32:44.506Z,14.33
2019-04-29T16:35:17.854Z,14.25
2019-04-29T16:37:44.867Z,14.19
2019-04-29T16:40:14.233Z,14.16
2019-04-29T16:42:58.939Z,14.21
2019-04-29T16:45:51.519Z,13.97
2019-04-29T16:48:18.323Z,13.98
2019-04-29T16:50:47.534Z,13.97
2019-04-29T16:53:17.404Z,13.85
2019-04-29T16:55:47.400Z,13.81
2019-04-29T16:58:18.427Z,13.75
2019-04-29T17:00:52.772Z,13.62
2019-04-29T17:03:19.213Z,13.58
2019-04-29T17:05:48.415Z,13.55
2019-04-29T17:08:19.267Z,13.47
2019-04-29T17:11:04.001Z,13.21
2019-04-29T17:13:34.221Z,13.10
2019-04-29T17:16:05.224Z,13.01
2019-04-29T17:18:34.804Z,12.97
2019-04-29T17:21:07.232Z,12.78
2019-04-29T17:23:35.268Z,12.88
2019-04-29T17:26:04.553Z,12.73
2019-04-29T17:28:49.367Z,12.48
2019-04-29T17:31:36.655Z,12.44
2019-04-29T17:34:54.468Z,12.43
2019-04-29T17:36:50.069Z,12.40
2019-04-29T17:39:20.174Z,12.36
2019-04-29T17:41:49.769Z,12.44
2019-04-29T17:44:35.756Z,12.33
2019-04-29T17:47:11.660Z,12.27
2019-04-29T17:50:02.043Z,12.14
2019-04-29T17:52:31.516Z,12.13
2019-04-29T17:55:12.755Z,12.10
2019-04-29T17:57:54.489Z,12.08
2019-04-29T18:00:58.260Z,12.00
2019-04-29T18:03:41.530Z,11.97
2019-04-29T18:06:26.263Z,11.92
2019-04-29T18:09:20.799Z,11.84
2019-04-29T18:11:53.522Z,11.84
2019-04-29T18:14:21.457Z,11.74
2019-04-29T18:16:51.347Z,11.67
2019-04-29T18:19:34.516Z,11.66
2019-04-29T18:22:34.917Z,11.56
2019-04-29T18:25:30.709Z,11.53
2019-04-29T18:28:00.029Z,11.49
2019-04-29T18:30:35.712Z,11.45
2019-04-29T18:33:00.526Z,11.41
2019-04-29T18:35:30.354Z,11.39
2019-04-29T18:38:00.701Z,11.39
2019-04-29T18:40:35.375Z,11.37
2019-04-29T18:43:01.536Z,11.34
2019-04-29T18:45:34.520Z,11.35
2019-04-29T18:48:04.133Z,11.36
2019-04-29T18:50:38.955Z,11.38
2019-04-29T18:53:08.401Z,11.37
2019-04-29T18:55:37.669Z,11.35
2019-04-29T18:58:07.053Z,11.36
2019-04-29T19:00:36.495Z,11.34
2019-04-29T19:03:06.596Z,11.30
2019-04-29T19:05:45.382Z,11.26
2019-04-29T19:08:19.137Z,11.15
2019-04-29T19:10:49.912Z,11.12
2019-04-29T19:13:18.296Z,11.11
2019-04-29T19:15:50.172Z,11.07
2019-04-29T19:18:21.277Z,11.05
2019-04-29T19:20:52.681Z,11.00
2019-04-29T19:23:24.980Z,10.96
2019-04-29T19:25:54.329Z,10.92
2019-04-29T19:28:30.078Z,10.89
2019-04-29T19:30:56.044Z,10.85
2019-04-29T19:33:30.790Z,10.88
2019-04-29T19:35:58.483Z,10.82
2019-04-29T19:38:31.285Z,10.79
2019-04-29T19:41:01.031Z,10.76
2019-04-29T19:43:30.720Z,10.70
2019-04-29T19:46:00.735Z,10.68
2019-04-29T19:48:30.057Z,10.67
2019-04-29T19:51:14.502Z,10.71
2019-04-29T19:53:37.720Z,10.74
2019-04-29T19:56:04.927Z,10.71
2019-04-29T19:58:35.524Z,10.72
2019-04-29T20:01:13.838Z,10.72
2019-04-29T20:03:42.169Z,10.68
2019-04-29T20:06:21.441Z,10.70
2019-04-29T20:08:53.865Z,10.65
2019-04-29T20:11:17.402Z,10.60
2019-04-29T20:14:01.307Z,10.62
2019-04-29T20:16:44.800Z,10.62
2019-04-29T20:19:27.334Z,10.60
2019-04-29T20:21:59.937Z,10.61
2019-04-29T20:24:26.628Z,10.63
2019-04-29T20:26:56.014Z,10.59
2019-04-29T20:29:27.261Z,10.64
2019-04-29T20:31:58.718Z,10.57
2019-04-29T20:34:28.641Z,10.50
2019-04-29T20:36:58.247Z,10.50
2019-04-29T20:39:27.702Z,10.50
2019-04-29T20:42:01.129Z,10.48
2019-04-29T20:44:28.448Z,10.45
2019-04-29T20:47:16.686Z,10.37
2019-04-29T20:49:30.850Z,10.36
2019-04-29T20:52:07.987Z,10.34
2019-04-29T20:54:38.496Z,10.34
2019-04-29T20:57:17.560Z,10.31
2019-04-29T20:59:42.114Z,10.35
2019-04-29T21:02:12.771Z,10.42
2019-04-29T21:04:46.448Z,10.28
2019-04-29T21:07:18.508Z,10.38
2019-04-29T21:09:43.477Z,10.32
2019-04-29T21:12:20.806Z,10.30
2019-04-29T21:14:53.235Z,10.25
2019-04-29T21:17:29.386Z,10.28
2019-04-29T21:19:53.703Z,10.28
2019-04-29T21:22:24.161Z,10.26
2019-04-29T21:24:55.091Z,10.26
2019-04-29T21:27:26.038Z,10.24
2019-04-29T21:29:55.535Z,10.32
2019-04-29T21:32:25.802Z,10.10
2019-04-29T21:35:10.293Z,10.22
2019-04-29T21:37:53.957Z,10.20
2019-04-29T21:40:36.704Z,10.26
2019-04-29T21:43:13.476Z,10.23
2019-04-29T21:45:45.023Z,10.18
2019-04-29T21:48:12.189Z,10.19
2019-04-29T21:50:41.697Z,10.21
2019-04-29T21:53:10.818Z,10.31
2019-04-29T21:55:40.032Z,10.26
2019-04-29T21:58:10.909Z,10.17
2019-04-29T22:00:40.643Z,10.13
2019-04-29T22:03:09.712Z,10.23
2019-04-29T22:05:38.869Z,10.22
2019-04-29T22:08:08.329Z,10.16
2019-04-29T22:10:37.511Z,10.07
2019-04-29T22:13:07.126Z,10.04
2019-04-29T22:15:39.096Z,10.01
2019-04-29T22:18:14.008Z,10.04
2019-04-29T22:20:42.340Z,10.05
2019-04-29T22:23:13.174Z,10.09
2019-04-29T22:25:41.161Z,10.05
2019-04-29T22:28:15.865Z,10.06
2019-04-29T22:30:45.300Z,10.20
2019-04-29T22:33:15.307Z,10.22
2019-04-29T22:35:45.268Z,10.18
2019-04-29T22:38:16.697Z,10.18
2019-04-29T22:40:45.732Z,10.13
2019-04-29T22:43:27.131Z,10.15
2019-04-29T22:45:56.554Z,10.11
2019-04-29T22:48:25.730Z,10.21
2019-04-29T22:50:55.617Z,10.14
2019-04-29T22:53:25.207Z,10.08
2019-04-29T22:55:56.403Z,10.06
2019-04-29T22:58:25.378Z,10.00
2019-04-29T23:00:54.706Z,9.99
2019-04-29T23:03:23.841Z,9.98
2019-04-29T23:05:53.178Z,10.04
2019-04-29T23:08:22.286Z,10.03
2019-04-29T23:10:51.444Z,10.04
2019-04-29T23:13:21.262Z,10.03
2019-04-29T23:15:53.800Z,10.01
2019-04-29T23:18:26.768Z,10.01
2019-04-29T23:21:20.405Z,10.03
2019-04-29T23:23:55.160Z,10.06
2019-04-29T23:26:24.975Z,10.11
2019-04-29T23:28:55.431Z,10.10
2019-04-29T23:31:27.075Z,10.10
2019-04-29T23:33:56.726Z,10.11
2019-04-29T23:36:26.046Z,10.16
2019-04-29T23:38:56.638Z,10.10
2019-04-29T23:41:32.786Z,10.08
2019-04-29T23:43:59.957Z,10.15
2019-04-29T23:46:29.762Z,10.11
2019-04-29T23:49:03.100Z,10.11
2019-04-29T23:51:34.258Z,10.11
2019-04-29T23:54:07.200Z,10.11
2019-04-29T23:56:38.466Z,10.16
2019-04-29T23:59:18.199Z,10.23
